sensor_id;sensor_type;location;lat;lon;timestamp;pressure;altitude;pressure_sealevel;temperature
14023;BMP180;7086;48.116;11.580;2022-08-18T00:01:52;94945.00;;;25.00
14023;BMP180;7086;48.116;11.580;2022-08-18T00:04:22;95036.00;;;25.00
14023;BMP180;7086;48.116;11.580;2022-08-18T00:06:53;95038.00;;;25.00
14023;BMP180;7086;48.116;11.580;2022-08-18T00:09:32;94987.00;;;25.00
14023;BMP180;7086;48.116;11.580;2022-08-18T00:12:09;95058.00;;;25.00
14023;BMP180;7086;48.116;11.580;2022-08-18T00:14:42;94964.00;;;25.00
14023;BMP180;7086;48.116;11.580;2022-08-18T00:17:24;95021.00;;;25.00
14023;BMP180;7086;48.116;11.580;2022-08-18T00:19:52;95022.00;;;25.00
14023;BMP180;7086;48.116;11.580;2022-08-18T00:22:20;95030.00;;;25.00
14023;BMP180;7086;48.116;11.580;2022-08-18T00:24:53;95018.00;;;25.00
14023;BMP180;7086;48.116;11.580;2022-08-18T00:27:24;95029.00;;;25.10
14023;BMP180;7086;48.116;11.580;2022-08-18T00:29:54;95055.00;;;25.10
14023;BMP180;7086;48.116;11.580;2022-08-18T00:32:25;95015.00;;;25.00
14023;BMP180;7086;48.116;11.580;2022-08-18T00:34:53;95012.00;;;25.00
14023;BMP180;7086;48.116;11.580;2022-08-18T00:37:23;95042.00;;;25.00
14023;BMP180;7086;48.116;11.580;2022-08-18T00:39:58;95005.00;;;25.00
14023;BMP180;7086;48.116;11.580;2022-08-18T00:42:31;94971.00;;;24.80
14023;BMP180;7086;48.116;11.580;2022-08-18T00:45:04;94989.00;;;24.90
14023;BMP180;7086;48.116;11.580;2022-08-18T00:47:38;95021.00;;;25.00
14023;BMP180;7086;48.116;11.580;2022-08-18T00:50:11;95017.00;;;25.00
14023;BMP180;7086;48.116;11.580;2022-08-18T00:52:40;95019.00;;;24.90
14023;BMP180;7086;48.116;11.580;2022-08-18T00:55:11;95006.00;;;24.90
14023;BMP180;7086;48.116;11.580;2022-08-18T00:57:39;95004.00;;;24.90
14023;BMP180;7086;48.116;11.580;2022-08-18T01:00:08;95010.00;;;24.90
14023;BMP180;7086;48.116;11.580;2022-08-18T01:02:43;95060.00;;;24.80
14023;BMP180;7086;48.116;11.580;2022-08-18T01:05:17;95065.00;;;24.80
14023;BMP180;7086;48.116;11.580;2022-08-18T01:07:49;95032.00;;;24.80
14023;BMP180;7086;48.116;11.580;2022-08-18T01:10:21;94983.00;;;24.70
14023;BMP180;7086;48.116;11.580;2022-08-18T01:12:53;94995.00;;;24.80
14023;BMP180;7086;48.116;11.580;2022-08-18T01:15:24;94946.00;;;24.80
14023;BMP180;7086;48.116;11.580;2022-08-18T01:17:54;94998.00;;;24.80
14023;BMP180;7086;48.116;11.580;2022-08-18T01:20:43;94986.00;;;24.80
14023;BMP180;7086;48.116;11.580;2022-08-18T01:23:33;95025.00;;;24.80
14023;BMP180;7086;48.116;11.580;2022-08-18T01:26:03;95053.00;;;24.80
14023;BMP180;7086;48.116;11.580;2022-08-18T01:28:36;94987.00;;;24.70
14023;BMP180;7086;48.116;11.580;2022-08-18T01:31:10;94945.00;;;24.70
14023;BMP180;7086;48.116;11.580;2022-08-18T01:33:43;94954.00;;;24.70
14023;BMP180;7086;48.116;11.580;2022-08-18T01:36:19;95064.00;;;24.70
14023;BMP180;7086;48.116;11.580;2022-08-18T01:38:52;95010.00;;;24.60
14023;BMP180;7086;48.116;11.580;2022-08-18T01:41:23;95044.00;;;24.60
14023;BMP180;7086;48.116;11.580;2022-08-18T01:43:52;94933.00;;;24.60
14023;BMP180;7086;48.116;11.580;2022-08-18T01:46:31;95038.00;;;24.60
14023;BMP180;7086;48.116;11.580;2022-08-18T01:49:00;95021.00;;;24.50
14023;BMP180;7086;48.116;11.580;2022-08-18T01:51:32;95020.00;;;24.50
14023;BMP180;7086;48.116;11.580;2022-08-18T01:54:05;94924.00;;;24.20
14023;BMP180;7086;48.116;11.580;2022-08-18T01:56:37;95033.00;;;24.40
14023;BMP180;7086;48.116;11.580;2022-08-18T01:59:06;95012.00;;;24.40
14023;BMP180;7086;48.116;11.580;2022-08-18T02:01:40;95014.00;;;24.30
14023;BMP180;7086;48.116;11.580;2022-08-18T02:04:09;95000.00;;;24.30
14023;BMP180;7086;48.116;11.580;2022-08-18T02:06:44;95018.00;;;24.20
14023;BMP180;7086;48.116;11.580;2022-08-18T02:09:18;94925.00;;;24.20
14023;BMP180;7086;48.116;11.580;2022-08-18T02:11:47;95015.00;;;24.20
14023;BMP180;7086;48.116;11.580;2022-08-18T02:14:16;95014.00;;;24.20
14023;BMP180;7086;48.116;11.580;2022-08-18T02:16:45;95007.00;;;24.10
14023;BMP180;7086;48.116;11.580;2022-08-18T02:19:13;95003.00;;;24.10
14023;BMP180;7086;48.116;11.580;2022-08-18T02:21:40;95010.00;;;24.10
14023;BMP180;7086;48.116;11.580;2022-08-18T02:24:08;95011.00;;;24.00
14023;BMP180;7086;48.116;11.580;2022-08-18T02:26:38;95021.00;;;24.00
14023;BMP180;7086;48.116;11.580;2022-08-18T02:29:06;95013.00;;;24.00
14023;BMP180;7086;48.116;11.580;2022-08-18T02:31:33;95002.00;;;24.00
14023;BMP180;7086;48.116;11.580;2022-08-18T02:34:01;95005.00;;;23.90
14023;BMP180;7086;48.116;11.580;2022-08-18T02:36:29;94996.00;;;23.90
14023;BMP180;7086;48.116;11.580;2022-08-18T02:38:57;95010.00;;;23.90
14023;BMP180;7086;48.116;11.580;2022-08-18T02:41:25;95021.00;;;23.90
14023;BMP180;7086;48.116;11.580;2022-08-18T02:43:54;94992.00;;;23.80
14023;BMP180;7086;48.116;11.580;2022-08-18T02:46:22;95008.00;;;23.80
14023;BMP180;7086;48.116;11.580;2022-08-18T02:48:50;95004.00;;;23.80
14023;BMP180;7086;48.116;11.580;2022-08-18T02:51:19;94997.00;;;23.80
14023;BMP180;7086;48.116;11.580;2022-08-18T02:53:47;94976.00;;;23.80
14023;BMP180;7086;48.116;11.580;2022-08-18T02:56:19;94981.00;;;23.50
14023;BMP180;7086;48.116;11.580;2022-08-18T02:59:11;94899.00;;;23.70
14023;BMP180;7086;48.116;11.580;2022-08-18T03:01:44;94960.00;;;23.70
14023;BMP180;7086;48.116;11.580;2022-08-18T03:04:17;94955.00;;;23.70
14023;BMP180;7086;48.116;11.580;2022-08-18T03:06:54;94991.00;;;23.70
14023;BMP180;7086;48.116;11.580;2022-08-18T03:09:25;94978.00;;;23.70
14023;BMP180;7086;48.116;11.580;2022-08-18T03:11:54;94990.00;;;23.70
14023;BMP180;7086;48.116;11.580;2022-08-18T03:14:24;94985.00;;;23.60
14023;BMP180;7086;48.116;11.580;2022-08-18T03:16:52;94987.00;;;23.60
14023;BMP180;7086;48.116;11.580;2022-08-18T03:19:21;94986.00;;;23.60
14023;BMP180;7086;48.116;11.580;2022-08-18T03:21:48;94980.00;;;23.60
14023;BMP180;7086;48.116;11.580;2022-08-18T03:24:16;94972.00;;;23.60
14023;BMP180;7086;48.116;11.580;2022-08-18T03:26:44;94956.00;;;23.50
14023;BMP180;7086;48.116;11.580;2022-08-18T03:29:13;94973.00;;;23.50
14023;BMP180;7086;48.116;11.580;2022-08-18T03:31:43;94906.00;;;23.50
14023;BMP180;7086;48.116;11.580;2022-08-18T03:34:12;94973.00;;;23.50
14023;BMP180;7086;48.116;11.580;2022-08-18T03:36:40;94950.00;;;23.40
14023;BMP180;7086;48.116;11.580;2022-08-18T03:39:11;94952.00;;;23.40
14023;BMP180;7086;48.116;11.580;2022-08-18T03:41:42;94931.00;;;23.40
14023;BMP180;7086;48.116;11.580;2022-08-18T03:44:11;94971.00;;;23.40
14023;BMP180;7086;48.116;11.580;2022-08-18T03:46:42;94978.00;;;23.40
14023;BMP180;7086;48.116;11.580;2022-08-18T03:49:11;94974.00;;;23.40
14023;BMP180;7086;48.116;11.580;2022-08-18T03:51:44;94949.00;;;23.30
14023;BMP180;7086;48.116;11.580;2022-08-18T03:54:15;94963.00;;;23.40
14023;BMP180;7086;48.116;11.580;2022-08-18T03:56:45;94962.00;;;23.40
14023;BMP180;7086;48.116;11.580;2022-08-18T03:59:17;94952.00;;;23.40
14023;BMP180;7086;48.116;11.580;2022-08-18T04:01:54;94867.00;;;23.40
14023;BMP180;7086;48.116;11.580;2022-08-18T04:04:25;94907.00;;;23.40
14023;BMP180;7086;48.116;11.580;2022-08-18T04:06:57;94921.00;;;23.40
14023;BMP180;7086;48.116;11.580;2022-08-18T04:09:28;94990.00;;;23.40
14023;BMP180;7086;48.116;11.580;2022-08-18T04:11:57;94972.00;;;23.40
14023;BMP180;7086;48.116;11.580;2022-08-18T04:14:26;94965.00;;;23.40
14023;BMP180;7086;48.116;11.580;2022-08-18T04:16:59;94867.00;;;23.40
14023;BMP180;7086;48.116;11.580;2022-08-18T04:19:28;94946.00;;;23.40
14023;BMP180;7086;48.116;11.580;2022-08-18T04:21:57;94878.00;;;23.30
14023;BMP180;7086;48.116;11.580;2022-08-18T04:24:26;94952.00;;;23.30
14023;BMP180;7086;48.116;11.580;2022-08-18T04:26:57;94912.00;;;23.30
14023;BMP180;7086;48.116;11.580;2022-08-18T04:29:25;94922.00;;;23.30
14023;BMP180;7086;48.116;11.580;2022-08-18T04:31:55;94931.00;;;23.30
14023;BMP180;7086;48.116;11.580;2022-08-18T04:34:24;94915.00;;;23.30
14023;BMP180;7086;48.116;11.580;2022-08-18T04:36:52;94925.00;;;23.30
14023;BMP180;7086;48.116;11.580;2022-08-18T04:39:23;94928.00;;;23.30
14023;BMP180;7086;48.116;11.580;2022-08-18T04:41:52;94930.00;;;23.30
14023;BMP180;7086;48.116;11.580;2022-08-18T04:44:20;94923.00;;;23.20
14023;BMP180;7086;48.116;11.580;2022-08-18T04:46:51;94931.00;;;23.30
14023;BMP180;7086;48.116;11.580;2022-08-18T04:49:23;94936.00;;;23.30
14023;BMP180;7086;48.116;11.580;2022-08-18T04:51:54;94909.00;;;23.30
14023;BMP180;7086;48.116;11.580;2022-08-18T04:54:39;94902.00;;;23.20
14023;BMP180;7086;48.116;11.580;2022-08-18T04:57:10;94954.00;;;23.30
14023;BMP180;7086;48.116;11.580;2022-08-18T04:59:40;94957.00;;;23.30
14023;BMP180;7086;48.116;11.580;2022-08-18T05:02:09;94951.00;;;23.40
14023;BMP180;7086;48.116;11.580;2022-08-18T05:04:40;94925.00;;;23.40
14023;BMP180;7086;48.116;11.580;2022-08-18T05:07:17;94960.00;;;23.40
14023;BMP180;7086;48.116;11.580;2022-08-18T05:09:45;94945.00;;;23.50
14023;BMP180;7086;48.116;11.580;2022-08-18T05:12:15;94955.00;;;23.50
14023;BMP180;7086;48.116;11.580;2022-08-18T05:14:44;94974.00;;;23.60
14023;BMP180;7086;48.116;11.580;2022-08-18T05:17:14;94938.00;;;23.60
14023;BMP180;7086;48.116;11.580;2022-08-18T05:19:42;94965.00;;;23.70
14023;BMP180;7086;48.116;11.580;2022-08-18T05:22:11;94973.00;;;23.70
14023;BMP180;7086;48.116;11.580;2022-08-18T05:24:44;94985.00;;;23.80
14023;BMP180;7086;48.116;11.580;2022-08-18T05:27:13;94969.00;;;23.90
14023;BMP180;7086;48.116;11.580;2022-08-18T05:29:40;94995.00;;;24.00
14023;BMP180;7086;48.116;11.580;2022-08-18T05:32:08;95006.00;;;24.10
14023;BMP180;7086;48.116;11.580;2022-08-18T05:34:36;95001.00;;;24.20
14023;BMP180;7086;48.116;11.580;2022-08-18T05:37:19;95003.00;;;24.40
14023;BMP180;7086;48.116;11.580;2022-08-18T05:39:57;94992.00;;;24.50
14023;BMP180;7086;48.116;11.580;2022-08-18T05:42:35;94991.00;;;24.70
14023;BMP180;7086;48.116;11.580;2022-08-18T05:45:10;94973.00;;;24.80
14023;BMP180;7086;48.116;11.580;2022-08-18T05:47:39;94999.00;;;25.00
14023;BMP180;7086;48.116;11.580;2022-08-18T05:50:12;95009.00;;;25.20
14023;BMP180;7086;48.116;11.580;2022-08-18T05:52:53;94974.00;;;25.30
14023;BMP180;7086;48.116;11.580;2022-08-18T05:55:28;95000.00;;;25.50
14023;BMP180;7086;48.116;11.580;2022-08-18T05:58:21;95016.00;;;25.60
14023;BMP180;7086;48.116;11.580;2022-08-18T06:00:55;95027.00;;;25.70
14023;BMP180;7086;48.116;11.580;2022-08-18T06:03:31;95020.00;;;25.60
14023;BMP180;7086;48.116;11.580;2022-08-18T06:06:07;94967.00;;;25.70
14023;BMP180;7086;48.116;11.580;2022-08-18T06:08:42;95013.00;;;25.90
14023;BMP180;7086;48.116;11.580;2022-08-18T06:11:12;94970.00;;;25.90
14023;BMP180;7086;48.116;11.580;2022-08-18T06:13:42;95023.00;;;26.00
14023;BMP180;7086;48.116;11.580;2022-08-18T06:16:17;95028.00;;;25.90
14023;BMP180;7086;48.116;11.580;2022-08-18T06:18:56;95026.00;;;26.00
14023;BMP180;7086;48.116;11.580;2022-08-18T06:21:37;95019.00;;;26.10
14023;BMP180;7086;48.116;11.580;2022-08-18T06:24:20;95021.00;;;26.20
14023;BMP180;7086;48.116;11.580;2022-08-18T06:27:13;95000.00;;;26.20
14023;BMP180;7086;48.116;11.580;2022-08-18T06:29:57;94983.00;;;26.20
14023;BMP180;7086;48.116;11.580;2022-08-18T06:32:51;94986.00;;;26.20
14023;BMP180;7086;48.116;11.580;2022-08-18T06:35:34;94980.00;;;26.20
14023;BMP180;7086;48.116;11.580;2022-08-18T06:38:37;94951.00;;;26.20
14023;BMP180;7086;48.116;11.580;2022-08-18T06:41:15;94997.00;;;26.30
14023;BMP180;7086;48.116;11.580;2022-08-18T06:43:58;94981.00;;;26.20
14023;BMP180;7086;48.116;11.580;2022-08-18T06:46:39;94995.00;;;26.20
14023;BMP180;7086;48.116;11.580;2022-08-18T06:49:10;94931.00;;;26.30
14023;BMP180;7086;48.116;11.580;2022-08-18T06:51:39;95013.00;;;26.30
14023;BMP180;7086;48.116;11.580;2022-08-18T06:54:25;94995.00;;;26.30
14023;BMP180;7086;48.116;11.580;2022-08-18T06:56:55;94995.00;;;26.40
14023;BMP180;7086;48.116;11.580;2022-08-18T06:59:28;94976.00;;;26.40
14023;BMP180;7086;48.116;11.580;2022-08-18T07:02:01;94968.00;;;26.50
14023;BMP180;7086;48.116;11.580;2022-08-18T07:04:41;94948.00;;;26.50
14023;BMP180;7086;48.116;11.580;2022-08-18T07:07:23;94983.00;;;26.50
14023;BMP180;7086;48.116;11.580;2022-08-18T07:09:56;94976.00;;;26.60
14023;BMP180;7086;48.116;11.580;2022-08-18T07:12:27;94971.00;;;26.70
14023;BMP180;7086;48.116;11.580;2022-08-18T07:15:02;94987.00;;;26.80
14023;BMP180;7086;48.116;11.580;2022-08-18T07:17:33;94991.00;;;27.00
14023;BMP180;7086;48.116;11.580;2022-08-18T07:20:08;94965.00;;;27.10
14023;BMP180;7086;48.116;11.580;2022-08-18T07:22:56;94981.00;;;27.30
14023;BMP180;7086;48.116;11.580;2022-08-18T07:25:39;94983.00;;;27.50
14023;BMP180;7086;48.116;11.580;2022-08-18T07:28:27;94978.00;;;27.70
14023;BMP180;7086;48.116;11.580;2022-08-18T07:31:16;94981.00;;;27.70
14023;BMP180;7086;48.116;11.580;2022-08-18T07:33:52;94982.00;;;27.90
14023;BMP180;7086;48.116;11.580;2022-08-18T07:36:27;94980.00;;;28.00
14023;BMP180;7086;48.116;11.580;2022-08-18T07:39:03;94968.00;;;28.20
14023;BMP180;7086;48.116;11.580;2022-08-18T07:41:42;94957.00;;;28.40
14023;BMP180;7086;48.116;11.580;2022-08-18T07:44:20;94950.00;;;28.80
14023;BMP180;7086;48.116;11.580;2022-08-18T07:46:58;94952.00;;;29.00
14023;BMP180;7086;48.116;11.580;2022-08-18T07:49:33;94916.00;;;29.30
14023;BMP180;7086;48.116;11.580;2022-08-18T07:52:05;94972.00;;;29.70
14023;BMP180;7086;48.116;11.580;2022-08-18T07:54:52;94936.00;;;30.00
14023;BMP180;7086;48.116;11.580;2022-08-18T07:57:38;94974.00;;;30.40
14023;BMP180;7086;48.116;11.580;2022-08-18T08:00:19;94970.00;;;30.70
14023;BMP180;7086;48.116;11.580;2022-08-18T08:03:05;94977.00;;;31.00
14023;BMP180;7086;48.116;11.580;2022-08-18T08:05:46;94911.00;;;31.30
14023;BMP180;7086;48.116;11.580;2022-08-18T08:08:22;94936.00;;;31.50
14023;BMP180;7086;48.116;11.580;2022-08-18T08:11:10;94988.00;;;31.60
14023;BMP180;7086;48.116;11.580;2022-08-18T08:13:58;94988.00;;;31.80
14023;BMP180;7086;48.116;11.580;2022-08-18T08:16:45;94978.00;;;31.80
14023;BMP180;7086;48.116;11.580;2022-08-18T08:19:57;94976.00;;;31.70
14023;BMP180;7086;48.116;11.580;2022-08-18T08:22:35;94957.00;;;32.40
14023;BMP180;7086;48.116;11.580;2022-08-18T08:25:15;94990.00;;;32.70
14023;BMP180;7086;48.116;11.580;2022-08-18T08:28:00;94988.00;;;33.00
14023;BMP180;7086;48.116;11.580;2022-08-18T08:30:40;94970.00;;;33.30
14023;BMP180;7086;48.116;11.580;2022-08-18T08:33:23;94982.00;;;33.40
14023;BMP180;7086;48.116;11.580;2022-08-18T08:36:05;94971.00;;;33.50
14023;BMP180;7086;48.116;11.580;2022-08-18T08:38:45;94970.00;;;33.60
14023;BMP180;7086;48.116;11.580;2022-08-18T08:41:21;94968.00;;;33.60
14023;BMP180;7086;48.116;11.580;2022-08-18T08:43:59;94956.00;;;33.70
14023;BMP180;7086;48.116;11.580;2022-08-18T08:46:40;94937.00;;;33.70
14023;BMP180;7086;48.116;11.580;2022-08-18T08:49:34;94954.00;;;33.80
14023;BMP180;7086;48.116;11.580;2022-08-18T08:52:15;94933.00;;;33.70
14023;BMP180;7086;48.116;11.580;2022-08-18T08:55:05;94889.00;;;33.70
14023;BMP180;7086;48.116;11.580;2022-08-18T08:57:54;94975.00;;;33.90
14023;BMP180;7086;48.116;11.580;2022-08-18T09:00:25;94894.00;;;34.10
14023;BMP180;7086;48.116;11.580;2022-08-18T09:03:22;94871.00;;;34.70
14023;BMP180;7086;48.116;11.580;2022-08-18T09:06:18;94882.00;;;35.30
14023;BMP180;7086;48.116;11.580;2022-08-18T09:09:32;94949.00;;;35.90
14023;BMP180;7086;48.116;11.580;2022-08-18T09:12:41;94936.00;;;36.50
14023;BMP180;7086;48.116;11.580;2022-08-18T09:15:53;94940.00;;;36.70
14023;BMP180;7086;48.116;11.580;2022-08-18T09:18:44;94918.00;;;36.90
14023;BMP180;7086;48.116;11.580;2022-08-18T09:21:29;94941.00;;;37.00
14023;BMP180;7086;48.116;11.580;2022-08-18T09:24:13;94920.00;;;37.20
14023;BMP180;7086;48.116;11.580;2022-08-18T09:27:25;94982.00;;;37.40
14023;BMP180;7086;48.116;11.580;2022-08-18T09:32:56;94936.00;;;37.60
14023;BMP180;7086;48.116;11.580;2022-08-18T09:36:13;94936.00;;;37.70
14023;BMP180;7086;48.116;11.580;2022-08-18T09:41:43;94912.00;;;37.90
14023;BMP180;7086;48.116;11.580;2022-08-18T10:06:17;94910.00;;;37.80
14023;BMP180;7086;48.116;11.580;2022-08-18T10:09:27;94966.00;;;37.80
14023;BMP180;7086;48.116;11.580;2022-08-18T10:12:51;94906.00;;;37.80
14023;BMP180;7086;48.116;11.580;2022-08-18T10:16:05;94929.00;;;37.80
14023;BMP180;7086;48.116;11.580;2022-08-18T10:22:43;94942.00;;;38.00
14023;BMP180;7086;48.116;11.580;2022-08-18T10:25:30;94914.00;;;38.10
14023;BMP180;7086;48.116;11.580;2022-08-18T10:28:51;94971.00;;;38.20
14023;BMP180;7086;48.116;11.580;2022-08-18T10:31:25;94975.00;;;38.10
14023;BMP180;7086;48.116;11.580;2022-08-18T10:34:04;94905.00;;;38.20
14023;BMP180;7086;48.116;11.580;2022-08-18T10:36:50;94912.00;;;38.40
14023;BMP180;7086;48.116;11.580;2022-08-18T10:43:07;94931.00;;;38.30
14023;BMP180;7086;48.116;11.580;2022-08-18T10:45:47;94878.00;;;37.90
14023;BMP180;7086;48.116;11.580;2022-08-18T10:48:32;94932.00;;;37.30
14023;BMP180;7086;48.116;11.580;2022-08-18T10:51:14;94869.00;;;36.90
14023;BMP180;7086;48.116;11.580;2022-08-18T10:53:48;94964.00;;;36.90
14023;BMP180;7086;48.116;11.580;2022-08-18T10:56:40;94910.00;;;37.00
14023;BMP180;7086;48.116;11.580;2022-08-18T10:59:24;94913.00;;;37.20
14023;BMP180;7086;48.116;11.580;2022-08-18T11:02:20;94928.00;;;37.40
14023;BMP180;7086;48.116;11.580;2022-08-18T11:04:55;94927.00;;;37.60
14023;BMP180;7086;48.116;11.580;2022-08-18T11:07:28;94907.00;;;37.70
14023;BMP180;7086;48.116;11.580;2022-08-18T11:09:58;94882.00;;;37.80
14023;BMP180;7086;48.116;11.580;2022-08-18T11:12:59;94947.00;;;37.70
14023;BMP180;7086;48.116;11.580;2022-08-18T11:16:25;94859.00;;;37.50
14023;BMP180;7086;48.116;11.580;2022-08-18T11:21:49;94909.00;;;36.90
14023;BMP180;7086;48.116;11.580;2022-08-18T11:24:43;94911.00;;;36.40
14023;BMP180;7086;48.116;11.580;2022-08-18T11:27:27;94876.00;;;36.10
14023;BMP180;7086;48.116;11.580;2022-08-18T11:32:48;94888.00;;;35.60
14023;BMP180;7086;48.116;11.580;2022-08-18T11:35:43;94868.00;;;35.60
14023;BMP180;7086;48.116;11.580;2022-08-18T11:38:27;94896.00;;;35.30
14023;BMP180;7086;48.116;11.580;2022-08-18T11:43:35;94856.00;;;35.00
14023;BMP180;7086;48.116;11.580;2022-08-18T11:46:14;94856.00;;;35.10
14023;BMP180;7086;48.116;11.580;2022-08-18T11:48:53;94855.00;;;35.20
14023;BMP180;7086;48.116;11.580;2022-08-18T11:51:24;94847.00;;;35.10
14023;BMP180;7086;48.116;11.580;2022-08-18T11:54:20;94810.00;;;35.20
14023;BMP180;7086;48.116;11.580;2022-08-18T11:56:49;94818.00;;;35.10
14023;BMP180;7086;48.116;11.580;2022-08-18T11:59:39;94717.00;;;35.10
14023;BMP180;7086;48.116;11.580;2022-08-18T12:02:08;94782.00;;;35.00
14023;BMP180;7086;48.116;11.580;2022-08-18T12:07:55;94754.00;;;34.80
14023;BMP180;7086;48.116;11.580;2022-08-18T12:10:28;94765.00;;;34.50
14023;BMP180;7086;48.116;11.580;2022-08-18T12:12:57;94783.00;;;34.30
14023;BMP180;7086;48.116;11.580;2022-08-18T12:15:31;94757.00;;;34.10
14023;BMP180;7086;48.116;11.580;2022-08-18T12:18:13;94803.00;;;34.10
14023;BMP180;7086;48.116;11.580;2022-08-18T12:20:42;94811.00;;;34.10
14023;BMP180;7086;48.116;11.580;2022-08-18T12:23:16;94814.00;;;34.00
14023;BMP180;7086;48.116;11.580;2022-08-18T12:25:45;94812.00;;;33.90
14023;BMP180;7086;48.116;11.580;2022-08-18T12:28:13;94798.00;;;33.70
14023;BMP180;7086;48.116;11.580;2022-08-18T12:30:41;94789.00;;;33.60
14023;BMP180;7086;48.116;11.580;2022-08-18T12:33:12;94795.00;;;33.50
14023;BMP180;7086;48.116;11.580;2022-08-18T12:35:40;94787.00;;;33.40
14023;BMP180;7086;48.116;11.580;2022-08-18T12:38:20;94779.00;;;33.10
14023;BMP180;7086;48.116;11.580;2022-08-18T12:41:02;94781.00;;;32.90
14023;BMP180;7086;48.116;11.580;2022-08-18T12:43:37;94796.00;;;32.70
14023;BMP180;7086;48.116;11.580;2022-08-18T12:46:06;94819.00;;;32.30
14023;BMP180;7086;48.116;11.580;2022-08-18T12:48:36;94834.00;;;32.30
14023;BMP180;7086;48.116;11.580;2022-08-18T12:51:06;94764.00;;;32.20
14023;BMP180;7086;48.116;11.580;2022-08-18T12:54:21;94813.00;;;32.20
14023;BMP180;7086;48.116;11.580;2022-08-18T12:57:20;94781.00;;;32.20
14023;BMP180;7086;48.116;11.580;2022-08-18T13:00:02;94810.00;;;32.30
14023;BMP180;7086;48.116;11.580;2022-08-18T13:02:33;94811.00;;;32.30
14023;BMP180;7086;48.116;11.580;2022-08-18T13:05:01;94825.00;;;32.40
14023;BMP180;7086;48.116;11.580;2022-08-18T13:07:30;94808.00;;;32.40
14023;BMP180;7086;48.116;11.580;2022-08-18T13:10:03;94736.00;;;32.40
14023;BMP180;7086;48.116;11.580;2022-08-18T13:12:47;94755.00;;;32.20
14023;BMP180;7086;48.116;11.580;2022-08-18T13:15:26;94771.00;;;32.60
14023;BMP180;7086;48.116;11.580;2022-08-18T13:17:54;94759.00;;;32.60
14023;BMP180;7086;48.116;11.580;2022-08-18T13:20:23;94757.00;;;32.60
14023;BMP180;7086;48.116;11.580;2022-08-18T13:22:52;94751.00;;;32.50
14023;BMP180;7086;48.116;11.580;2022-08-18T13:25:33;94777.00;;;32.40
14023;BMP180;7086;48.116;11.580;2022-08-18T13:28:01;94759.00;;;32.40
14023;BMP180;7086;48.116;11.580;2022-08-18T13:31:03;94725.00;;;32.40
14023;BMP180;7086;48.116;11.580;2022-08-18T13:33:45;94753.00;;;32.40
14023;BMP180;7086;48.116;11.580;2022-08-18T13:36:28;94720.00;;;32.40
14023;BMP180;7086;48.116;11.580;2022-08-18T13:39:10;94757.00;;;32.30
14023;BMP180;7086;48.116;11.580;2022-08-18T13:41:53;94746.00;;;32.20
14023;BMP180;7086;48.116;11.580;2022-08-18T13:44:36;94768.00;;;32.30
14023;BMP180;7086;48.116;11.580;2022-08-18T13:47:15;94763.00;;;32.20
14023;BMP180;7086;48.116;11.580;2022-08-18T13:49:57;94771.00;;;32.20
14023;BMP180;7086;48.116;11.580;2022-08-18T13:52:37;94710.00;;;32.20
14023;BMP180;7086;48.116;11.580;2022-08-18T13:55:19;94761.00;;;32.10
14023;BMP180;7086;48.116;11.580;2022-08-18T13:57:48;94755.00;;;32.00
14023;BMP180;7086;48.116;11.580;2022-08-18T14:00:19;94717.00;;;32.00
14023;BMP180;7086;48.116;11.580;2022-08-18T14:03:06;94727.00;;;31.90
14023;BMP180;7086;48.116;11.580;2022-08-18T14:05:36;94712.00;;;31.90
14023;BMP180;7086;48.116;11.580;2022-08-18T14:08:04;94705.00;;;31.90
14023;BMP180;7086;48.116;11.580;2022-08-18T14:10:33;94695.00;;;31.80
14023;BMP180;7086;48.116;11.580;2022-08-18T14:13:01;94661.00;;;31.80
14023;BMP180;7086;48.116;11.580;2022-08-18T14:15:44;94685.00;;;31.70
14023;BMP180;7086;48.116;11.580;2022-08-18T14:18:29;94680.00;;;31.60
14023;BMP180;7086;48.116;11.580;2022-08-18T14:21:10;94677.00;;;31.60
14023;BMP180;7086;48.116;11.580;2022-08-18T14:23:56;94667.00;;;31.50
14023;BMP180;7086;48.116;11.580;2022-08-18T14:26:41;94669.00;;;31.50
14023;BMP180;7086;48.116;11.580;2022-08-18T14:29:20;94669.00;;;31.40
14023;BMP180;7086;48.116;11.580;2022-08-18T14:31:54;94661.00;;;31.10
14023;BMP180;7086;48.116;11.580;2022-08-18T14:34:27;94656.00;;;31.40
14023;BMP180;7086;48.116;11.580;2022-08-18T14:36:56;94665.00;;;31.40
14023;BMP180;7086;48.116;11.580;2022-08-18T14:39:23;94658.00;;;31.30
14023;BMP180;7086;48.116;11.580;2022-08-18T14:41:52;94670.00;;;31.30
14023;BMP180;7086;48.116;11.580;2022-08-18T14:44:27;94664.00;;;31.20
14023;BMP180;7086;48.116;11.580;2022-08-18T14:47:09;94656.00;;;31.20
14023;BMP180;7086;48.116;11.580;2022-08-18T14:49:54;94590.00;;;31.20
14023;BMP180;7086;48.116;11.580;2022-08-18T14:52:24;94658.00;;;31.20
14023;BMP180;7086;48.116;11.580;2022-08-18T14:54:53;94660.00;;;31.20
14023;BMP180;7086;48.116;11.580;2022-08-18T14:57:26;94655.00;;;31.10
14023;BMP180;7086;48.116;11.580;2022-08-18T15:02:33;94653.00;;;31.20
14023;BMP180;7086;48.116;11.580;2022-08-18T15:05:21;94648.00;;;31.20
14023;BMP180;7086;48.116;11.580;2022-08-18T15:07:49;94640.00;;;31.30
14023;BMP180;7086;48.116;11.580;2022-08-18T15:10:18;94652.00;;;31.30
14023;BMP180;7086;48.116;11.580;2022-08-18T15:12:45;94641.00;;;31.20
14023;BMP180;7086;48.116;11.580;2022-08-18T15:15:14;94658.00;;;31.20
14023;BMP180;7086;48.116;11.580;2022-08-18T15:17:43;94653.00;;;31.10
14023;BMP180;7086;48.116;11.580;2022-08-18T15:20:11;94658.00;;;31.10
14023;BMP180;7086;48.116;11.580;2022-08-18T15:22:43;94668.00;;;31.00
14023;BMP180;7086;48.116;11.580;2022-08-18T15:25:29;94659.00;;;31.00
14023;BMP180;7086;48.116;11.580;2022-08-18T15:30:50;94674.00;;;30.80
14023;BMP180;7086;48.116;11.580;2022-08-18T15:33:19;94664.00;;;30.80
14023;BMP180;7086;48.116;11.580;2022-08-18T15:35:55;94622.00;;;30.80
14023;BMP180;7086;48.116;11.580;2022-08-18T15:38:25;94684.00;;;30.70
14023;BMP180;7086;48.116;11.580;2022-08-18T15:40:55;94654.00;;;30.70
14023;BMP180;7086;48.116;11.580;2022-08-18T15:43:25;94666.00;;;30.60
14023;BMP180;7086;48.116;11.580;2022-08-18T15:45:53;94654.00;;;30.60
14023;BMP180;7086;48.116;11.580;2022-08-18T15:48:23;94662.00;;;30.60
14023;BMP180;7086;48.116;11.580;2022-08-18T15:50:51;94635.00;;;30.60
14023;BMP180;7086;48.116;11.580;2022-08-18T15:53:28;94654.00;;;30.50
14023;BMP180;7086;48.116;11.580;2022-08-18T15:55:59;94643.00;;;30.50